createdAt,value
2018-07-26T00:00:13.835Z,19.80
2018-07-26T00:02:42.570Z,19.90
2018-07-26T00:05:11.212Z,19.90
2018-07-26T00:07:39.918Z,19.90
2018-07-26T00:10:09.356Z,19.90
2018-07-26T00:12:38.162Z,19.90
2018-07-26T00:15:07.996Z,19.90
2018-07-26T00:17:36.826Z,19.80
2018-07-26T00:20:06.146Z,19.80
2018-07-26T00:22:34.871Z,19.80
2018-07-26T00:25:03.537Z,19.70
2018-07-26T00:27:32.270Z,19.80
2018-07-26T00:30:00.954Z,19.70
2018-07-26T00:32:29.608Z,19.60
2018-07-26T00:34:59.033Z,19.60
2018-07-26T00:37:27.673Z,19.60
2018-07-26T00:39:56.301Z,19.60
2018-07-26T00:42:24.997Z,19.60
2018-07-26T00:44:53.703Z,19.50
2018-07-26T00:47:22.339Z,19.50
2018-07-26T00:49:51.148Z,19.40
2018-07-26T00:52:20.947Z,19.30
2018-07-26T00:54:49.628Z,19.40
2018-07-26T00:57:18.355Z,19.40
2018-07-26T00:59:47.061Z,19.40
2018-07-26T01:02:15.813Z,19.30
2018-07-26T01:04:44.411Z,19.30
2018-07-26T01:07:13.136Z,19.30
2018-07-26T01:12:10.126Z,19.30
2018-07-26T01:14:39.068Z,19.20
2018-07-26T01:17:07.732Z,19.30
2018-07-26T01:19:36.515Z,19.30
2018-07-26T01:22:05.493Z,19.20
2018-07-26T01:24:34.296Z,19.30
2018-07-26T01:27:03.442Z,19.30
2018-07-26T01:29:32.114Z,19.40
2018-07-26T01:32:00.736Z,19.30
2018-07-26T01:34:30.036Z,19.30
2018-07-26T01:36:58.741Z,19.20
2018-07-26T01:39:32.496Z,19.20
2018-07-26T01:42:01.314Z,19.20
2018-07-26T01:44:29.959Z,19.10
2018-07-26T01:49:27.202Z,19.00
2018-07-26T01:51:55.838Z,18.80
2018-07-26T01:54:24.460Z,18.80
2018-07-26T01:56:53.133Z,18.70
2018-07-26T01:59:21.779Z,18.70
2018-07-26T02:01:53.894Z,18.60
2018-07-26T02:04:22.532Z,18.50
2018-07-26T02:06:51.230Z,18.60
2018-07-26T02:09:20.989Z,18.50
2018-07-26T02:11:49.550Z,18.60
2018-07-26T02:14:23.456Z,18.50
2018-07-26T02:16:52.093Z,18.60
2018-07-26T02:19:20.766Z,18.60
2018-07-26T02:21:49.480Z,18.70
2018-07-26T02:24:18.277Z,18.70
2018-07-26T02:26:46.921Z,18.70
2018-07-26T02:31:44.049Z,18.70
2018-07-26T02:34:13.318Z,18.60
2018-07-26T02:36:42.063Z,18.60
2018-07-26T02:39:11.690Z,18.50
2018-07-26T02:41:41.347Z,18.50
2018-07-26T02:44:11.048Z,18.50
2018-07-26T02:46:39.747Z,18.60
2018-07-26T02:49:08.448Z,18.50
2018-07-26T02:51:37.218Z,18.40
2018-07-26T02:54:06.154Z,18.20
2018-07-26T02:56:35.920Z,18.10
2018-07-26T02:59:04.709Z,18.20
2018-07-26T03:01:33.398Z,18.30
2018-07-26T03:04:01.987Z,18.30
2018-07-26T03:06:30.698Z,18.30
2018-07-26T03:08:59.416Z,18.40
2018-07-26T03:11:28.068Z,18.40
2018-07-26T03:13:56.681Z,18.50
2018-07-26T03:16:25.327Z,18.40
2018-07-26T03:18:54.009Z,18.30
2018-07-26T03:21:22.664Z,18.20
2018-07-26T03:23:51.361Z,18.20
2018-07-26T03:26:20.060Z,18.20
2018-07-26T03:28:49.741Z,18.10
2018-07-26T03:31:18.528Z,18.10
2018-07-26T03:33:47.216Z,18.10
2018-07-26T03:36:15.920Z,18.10
2018-07-26T03:38:45.600Z,18.10
2018-07-26T03:41:14.414Z,18.00
2018-07-26T03:46:12.097Z,18.00
2018-07-26T03:48:40.815Z,18.00
2018-07-26T03:51:09.644Z,18.10
2018-07-26T03:53:38.370Z,18.00
2018-07-26T03:56:06.996Z,18.00
2018-07-26T03:58:35.780Z,17.90
2018-07-26T04:01:04.452Z,17.90
2018-07-26T04:03:33.175Z,17.80
2018-07-26T04:06:01.859Z,17.90
2018-07-26T04:08:31.100Z,18.00
2018-07-26T04:11:00.886Z,18.10
2018-07-26T04:13:29.516Z,18.10
2018-07-26T04:15:58.156Z,18.20
2018-07-26T04:18:26.860Z,18.30
2018-07-26T04:20:55.615Z,18.30
2018-07-26T04:23:24.391Z,18.40
2018-07-26T04:25:53.072Z,18.60
2018-07-26T04:28:21.904Z,19.00
2018-07-26T04:30:51.368Z,19.30
2018-07-26T04:33:20.060Z,19.50
2018-07-26T04:35:49.736Z,19.70
2018-07-26T04:38:19.353Z,20.00
2018-07-26T04:40:48.163Z,20.30
2018-07-26T04:43:16.919Z,20.50
2018-07-26T04:45:45.551Z,20.70
2018-07-26T04:50:43.313Z,21.20
2018-07-26T04:53:11.958Z,21.50
2018-07-26T04:55:40.618Z,21.80
2018-07-26T04:58:09.343Z,22.00
2018-07-26T05:00:38.027Z,22.50
2018-07-26T05:03:06.837Z,22.40
2018-07-26T05:05:35.552Z,22.60
2018-07-26T05:08:04.259Z,22.80
2018-07-26T05:10:32.934Z,23.30
2018-07-26T05:13:01.591Z,23.80
2018-07-26T05:15:30.894Z,24.00
2018-07-26T05:18:01.523Z,24.50
2018-07-26T05:20:30.911Z,24.70
2018-07-26T05:22:59.607Z,24.80
2018-07-26T05:25:28.253Z,24.90
2018-07-26T05:27:56.982Z,25.00
2018-07-26T05:30:25.641Z,25.00
2018-07-26T05:32:54.450Z,24.60
2018-07-26T05:35:23.186Z,24.20
2018-07-26T05:37:51.886Z,23.70
2018-07-26T05:40:20.652Z,23.40
2018-07-26T05:42:50.150Z,22.80
2018-07-26T05:45:18.921Z,22.20
2018-07-26T05:47:47.664Z,22.00
2018-07-26T05:50:17.498Z,21.70
2018-07-26T05:52:46.282Z,21.50
2018-07-26T05:55:16.018Z,21.50
2018-07-26T05:57:44.712Z,21.60
2018-07-26T06:00:14.455Z,21.60
2018-07-26T06:02:47.505Z,21.60
2018-07-26T06:05:22.309Z,21.90
2018-07-26T06:08:02.636Z,21.80
2018-07-26T06:10:38.286Z,21.80
2018-07-26T06:13:11.428Z,21.90
2018-07-26T06:15:52.912Z,21.90
2018-07-26T06:18:22.328Z,21.90
2018-07-26T06:20:55.723Z,21.80
2018-07-26T06:23:31.187Z,21.70
2018-07-26T06:26:00.703Z,21.60
2018-07-26T06:28:34.486Z,21.50
2018-07-26T06:31:04.326Z,21.60
2018-07-26T06:33:38.701Z,21.70
2018-07-26T06:36:10.037Z,21.80
2018-07-26T06:38:38.834Z,22.30
2018-07-26T06:41:07.616Z,23.00
2018-07-26T06:43:36.259Z,23.70
2018-07-26T06:46:04.983Z,24.40
2018-07-26T06:48:35.711Z,24.80
2018-07-26T06:51:04.484Z,25.00
2018-07-26T06:53:33.216Z,24.80
2018-07-26T06:56:01.862Z,24.80
2018-07-26T06:58:30.535Z,25.40
2018-07-26T07:00:59.209Z,25.80
2018-07-26T07:03:28.873Z,25.50
2018-07-26T07:05:57.661Z,25.40
2018-07-26T07:08:27.537Z,25.10
2018-07-26T07:10:56.330Z,25.40
2018-07-26T07:13:25.219Z,25.10
2018-07-26T07:15:53.968Z,25.50
2018-07-26T07:18:23.724Z,25.80
2018-07-26T07:20:52.471Z,25.50
2018-07-26T07:23:21.197Z,24.80
2018-07-26T07:25:50.557Z,24.50
2018-07-26T07:28:19.258Z,24.20
2018-07-26T07:30:47.994Z,23.80
2018-07-26T07:33:16.839Z,23.40
2018-07-26T07:35:45.492Z,23.30
2018-07-26T07:38:14.272Z,23.50
2018-07-26T07:40:42.921Z,23.40
2018-07-26T07:43:11.697Z,23.50
2018-07-26T07:45:40.419Z,23.30
2018-07-26T07:48:09.163Z,23.20
2018-07-26T07:50:37.840Z,23.20
2018-07-26T07:53:06.704Z,23.20
2018-07-26T07:55:35.348Z,23.50
2018-07-26T07:58:04.186Z,23.80
2018-07-26T08:00:32.906Z,23.80
2018-07-26T08:03:01.571Z,24.30
2018-07-26T08:05:30.229Z,24.50
2018-07-26T08:07:59.695Z,24.30
2018-07-26T08:10:28.332Z,24.60
2018-07-26T08:12:57.013Z,24.90
2018-07-26T08:15:25.782Z,25.10
2018-07-26T08:17:54.500Z,24.90
2018-07-26T08:20:23.246Z,24.80
2018-07-26T08:22:51.907Z,25.00
2018-07-26T08:25:21.594Z,24.70
2018-07-26T08:27:50.917Z,24.90
2018-07-26T08:30:19.577Z,24.90
2018-07-26T08:32:48.501Z,25.50
2018-07-26T08:35:17.179Z,25.10
2018-07-26T08:37:45.885Z,24.90
2018-07-26T08:40:14.680Z,25.20
2018-07-26T08:42:44.406Z,25.40
2018-07-26T08:45:13.156Z,25.70
2018-07-26T08:47:42.045Z,25.60
2018-07-26T08:50:10.861Z,25.20
2018-07-26T08:52:39.614Z,25.30
2018-07-26T08:55:08.358Z,25.10
2018-07-26T08:57:37.058Z,24.90
2018-07-26T09:00:06.428Z,25.00
2018-07-26T09:02:36.145Z,25.20
2018-07-26T09:05:06.705Z,25.50
2018-07-26T09:07:35.854Z,25.40
2018-07-26T09:10:04.729Z,25.80
2018-07-26T09:12:34.455Z,25.90
2018-07-26T09:15:03.530Z,25.60
2018-07-26T09:17:32.144Z,25.90
2018-07-26T09:20:00.988Z,26.10
2018-07-26T09:22:29.724Z,26.10
2018-07-26T09:24:58.549Z,25.80
2018-07-26T09:27:27.215Z,25.90
2018-07-26T09:29:57.180Z,26.50
2018-07-26T09:32:25.915Z,26.30
2018-07-26T09:34:58.507Z,26.30
2018-07-26T09:37:27.247Z,26.30
2018-07-26T09:39:55.954Z,26.80
2018-07-26T09:42:27.060Z,26.90
2018-07-26T09:44:55.821Z,27.30
2018-07-26T09:47:25.600Z,27.20
2018-07-26T09:49:54.359Z,27.00
2018-07-26T09:52:23.057Z,27.80
2018-07-26T09:54:51.926Z,27.50
2018-07-26T09:57:20.676Z,27.60
2018-07-26T09:59:49.499Z,27.40
2018-07-26T10:02:18.185Z,27.40
2018-07-26T10:04:46.874Z,27.80
2018-07-26T10:07:16.277Z,27.70
2018-07-26T10:09:44.908Z,27.80
2018-07-26T10:12:13.783Z,27.90
2018-07-26T10:14:42.636Z,28.00
2018-07-26T10:17:14.430Z,28.30
2018-07-26T10:19:43.127Z,28.70
2018-07-26T10:22:12.755Z,28.80
2018-07-26T10:24:42.505Z,28.80
2018-07-26T10:27:11.163Z,28.90
2018-07-26T10:29:39.929Z,28.80
2018-07-26T10:32:08.648Z,28.50
2018-07-26T10:34:38.417Z,28.50
2018-07-26T10:37:07.142Z,28.60
2018-07-26T10:39:35.862Z,28.80
2018-07-26T10:42:04.628Z,29.00
2018-07-26T10:44:33.396Z,28.80
2018-07-26T10:47:02.068Z,28.70
2018-07-26T10:49:31.772Z,28.60
2018-07-26T10:52:00.508Z,28.60
2018-07-26T10:54:30.281Z,28.60
2018-07-26T10:56:59.985Z,28.80
2018-07-26T10:59:28.756Z,28.80
2018-07-26T11:01:57.530Z,28.90
2018-07-26T11:04:26.218Z,28.50
2018-07-26T11:06:54.906Z,28.60
2018-07-26T11:09:23.673Z,28.70
2018-07-26T11:11:52.351Z,28.50
2018-07-26T11:14:21.137Z,28.40
2018-07-26T11:16:49.862Z,28.30
2018-07-26T11:19:18.620Z,28.50
2018-07-26T11:21:47.276Z,28.80
2018-07-26T11:24:16.112Z,29.20
2018-07-26T11:26:44.790Z,29.00
2018-07-26T11:29:13.580Z,29.20
2018-07-26T11:31:42.292Z,29.10
2018-07-26T11:34:11.035Z,29.00
2018-07-26T11:36:39.701Z,29.00
2018-07-26T11:39:10.157Z,29.10
2018-07-26T11:41:39.951Z,29.10
2018-07-26T11:44:08.828Z,29.00
2018-07-26T11:48:50.146Z,29.10
2018-07-26T11:51:19.014Z,28.90
2018-07-26T11:53:47.707Z,28.90
2018-07-26T11:56:16.487Z,29.10
2018-07-26T11:58:46.044Z,29.30
2018-07-26T12:01:15.226Z,29.60
2018-07-26T12:03:43.922Z,29.30
2018-07-26T12:06:12.694Z,29.60
2018-07-26T12:08:41.386Z,29.20
2018-07-26T12:11:10.187Z,29.00
2018-07-26T12:13:39.885Z,29.10
2018-07-26T12:16:08.610Z,29.30
2018-07-26T12:18:38.423Z,29.40
2018-07-26T12:21:07.179Z,29.60
2018-07-26T12:23:35.931Z,29.50
2018-07-26T12:26:04.719Z,29.60
2018-07-26T12:28:33.451Z,29.70
2018-07-26T12:31:02.195Z,29.20
2018-07-26T12:33:31.001Z,29.50
2018-07-26T12:36:00.671Z,29.60
2018-07-26T12:38:29.443Z,29.60
2018-07-26T12:40:58.131Z,29.50
2018-07-26T12:43:26.922Z,29.40
2018-07-26T12:45:55.723Z,29.50
2018-07-26T12:48:24.609Z,29.30
2018-07-26T12:50:53.340Z,29.70
2018-07-26T12:53:22.108Z,29.60
2018-07-26T12:55:50.875Z,29.70
2018-07-26T12:58:19.692Z,29.50
2018-07-26T13:00:48.417Z,29.60
2018-07-26T13:03:17.166Z,29.80
2018-07-26T13:05:45.941Z,29.60
2018-07-26T13:08:14.720Z,29.50
2018-07-26T13:10:44.418Z,29.80
2018-07-26T13:13:13.178Z,29.80
2018-07-26T13:15:41.884Z,29.70
2018-07-26T13:18:10.631Z,29.60
2018-07-26T13:20:39.414Z,29.50
2018-07-26T13:23:08.078Z,29.90
2018-07-26T13:25:37.025Z,30.20
2018-07-26T13:28:05.762Z,30.00
2018-07-26T13:30:34.635Z,29.80
2018-07-26T13:33:10.670Z,29.80
2018-07-26T13:35:39.372Z,29.60
2018-07-26T13:38:08.122Z,29.80
2018-07-26T13:40:36.993Z,29.80
2018-07-26T13:43:05.805Z,29.70
2018-07-26T13:45:34.673Z,29.20
2018-07-26T13:48:03.492Z,29.40
2018-07-26T13:50:32.261Z,29.90
2018-07-26T13:53:01.006Z,30.20
2018-07-26T13:55:29.771Z,29.80
2018-07-26T13:57:59.572Z,29.70
2018-07-26T14:00:28.265Z,29.70
2018-07-26T14:02:58.372Z,29.50
2018-07-26T14:05:27.062Z,29.60
2018-07-26T14:07:55.853Z,29.80
2018-07-26T14:10:25.274Z,29.60
2018-07-26T14:12:53.978Z,29.80
2018-07-26T14:15:22.669Z,29.80
2018-07-26T14:17:51.456Z,29.80
2018-07-26T14:20:20.141Z,29.40
2018-07-26T14:22:49.987Z,29.50
2018-07-26T14:25:18.706Z,29.60
2018-07-26T14:27:47.486Z,29.70
2018-07-26T14:30:16.894Z,29.50
2018-07-26T14:32:45.582Z,29.50
2018-07-26T14:35:15.363Z,29.60
2018-07-26T14:37:44.767Z,29.80
2018-07-26T14:40:13.511Z,29.50
2018-07-26T14:42:42.243Z,29.30
2018-07-26T14:45:10.984Z,29.30
2018-07-26T14:47:40.232Z,29.40
2018-07-26T14:50:08.901Z,29.60
2018-07-26T14:52:37.621Z,29.60
2018-07-26T14:55:06.307Z,29.30
2018-07-26T14:57:36.049Z,29.20
2018-07-26T15:00:05.476Z,29.30
2018-07-26T15:02:34.473Z,29.40
2018-07-26T15:05:04.183Z,29.50
2018-07-26T15:07:33.595Z,29.30
2018-07-26T15:10:03.226Z,29.10
2018-07-26T15:15:01.014Z,29.60
2018-07-26T15:17:29.834Z,29.60
2018-07-26T15:19:58.558Z,29.30
2018-07-26T15:22:30.367Z,29.60
2018-07-26T15:24:58.981Z,29.50
2018-07-26T15:27:27.747Z,29.30
2018-07-26T15:32:24.894Z,29.30
2018-07-26T15:34:53.768Z,29.20
2018-07-26T15:37:22.538Z,29.40
2018-07-26T15:39:51.259Z,29.80
2018-07-26T15:42:20.123Z,29.60
2018-07-26T15:44:48.891Z,29.70
2018-07-26T15:47:17.630Z,29.60
2018-07-26T15:49:46.409Z,29.60
2018-07-26T15:52:15.101Z,29.40
2018-07-26T15:54:43.770Z,29.20
2018-07-26T15:57:12.554Z,29.10
2018-07-26T15:59:41.316Z,29.10
2018-07-26T16:02:10.305Z,29.20
2018-07-26T16:04:38.963Z,29.20
2018-07-26T16:07:07.828Z,29.30
2018-07-26T16:09:36.467Z,29.40
2018-07-26T16:12:05.294Z,29.20
2018-07-26T16:14:33.992Z,28.90
2018-07-26T16:17:03.728Z,28.90
2018-07-26T16:19:32.433Z,29.10
2018-07-26T16:22:01.304Z,29.00
2018-07-26T16:24:30.221Z,29.00
2018-07-26T16:26:58.891Z,29.00
2018-07-26T16:31:55.867Z,29.00
2018-07-26T16:36:52.822Z,28.90
2018-07-26T16:39:22.792Z,28.90
2018-07-26T16:41:51.513Z,28.80
2018-07-26T16:44:20.332Z,28.70
2018-07-26T16:46:49.036Z,28.70
2018-07-26T16:49:17.811Z,28.60
2018-07-26T16:51:46.937Z,28.60
2018-07-26T16:54:16.701Z,28.60
2018-07-26T16:56:45.414Z,28.30
2018-07-26T16:59:14.326Z,28.30
2018-07-26T17:01:43.013Z,28.30
2018-07-26T17:04:12.826Z,28.30
2018-07-26T17:06:41.575Z,28.30
2018-07-26T17:09:11.192Z,28.20
2018-07-26T17:11:40.981Z,28.10
2018-07-26T17:14:09.803Z,28.10
2018-07-26T17:16:38.547Z,28.00
2018-07-26T17:19:07.358Z,28.00
2018-07-26T17:21:36.061Z,28.00
2018-07-26T17:24:04.960Z,27.90
2018-07-26T17:26:33.638Z,28.00
2018-07-26T17:29:02.453Z,28.00
2018-07-26T17:31:31.094Z,28.00
2018-07-26T17:33:59.888Z,28.00
2018-07-26T17:36:28.626Z,28.00
2018-07-26T17:38:57.399Z,28.00
2018-07-26T17:41:26.114Z,27.90
2018-07-26T17:43:54.984Z,27.90
2018-07-26T17:46:23.721Z,27.80
2018-07-26T17:48:55.831Z,27.70
2018-07-26T17:51:24.601Z,27.60
2018-07-26T17:53:53.799Z,27.60
2018-07-26T17:58:50.920Z,27.50
2018-07-26T18:01:19.564Z,27.30
2018-07-26T18:03:48.365Z,27.30
2018-07-26T18:06:17.242Z,27.20
2018-07-26T18:08:45.987Z,27.10
2018-07-26T18:11:14.709Z,27.00
2018-07-26T18:13:43.704Z,26.90
2018-07-26T18:16:12.384Z,26.70
2018-07-26T18:18:41.074Z,26.60
2018-07-26T18:21:09.869Z,26.60
2018-07-26T18:23:40.208Z,26.60
2018-07-26T18:26:08.948Z,26.50
2018-07-26T18:28:37.656Z,26.40
2018-07-26T18:31:06.403Z,26.30
2018-07-26T18:33:35.110Z,26.20
2018-07-26T18:36:03.808Z,26.10
2018-07-26T18:38:32.421Z,26.00
2018-07-26T18:41:01.122Z,26.00
2018-07-26T18:43:29.951Z,25.90
2018-07-26T18:45:58.598Z,25.80
2018-07-26T18:48:28.049Z,25.80
2018-07-26T18:50:56.845Z,25.60
2018-07-26T18:53:26.610Z,25.70
2018-07-26T18:55:55.454Z,25.50
2018-07-26T18:58:25.153Z,25.40
2018-07-26T19:00:53.960Z,25.30
2018-07-26T19:03:22.740Z,25.20
2018-07-26T19:05:51.534Z,25.20
2018-07-26T19:08:20.308Z,25.00
2018-07-26T19:10:48.961Z,24.90
2018-07-26T19:13:17.686Z,24.90
2018-07-26T19:15:46.441Z,24.80
2018-07-26T19:18:15.171Z,24.80
2018-07-26T19:20:43.882Z,24.70
2018-07-26T19:23:12.660Z,24.70
2018-07-26T19:25:41.400Z,24.70
2018-07-26T19:28:10.188Z,24.70
2018-07-26T19:30:38.907Z,24.60
2018-07-26T19:33:09.203Z,24.40
2018-07-26T19:35:37.944Z,24.10
2018-07-26T19:38:06.601Z,23.80
2018-07-26T19:40:35.336Z,23.70
2018-07-26T19:43:04.135Z,23.60
2018-07-26T19:45:32.829Z,23.50
2018-07-26T19:48:01.498Z,23.40
2018-07-26T19:50:30.335Z,23.30
2018-07-26T19:52:58.963Z,23.30
2018-07-26T19:55:27.774Z,23.10
2018-07-26T19:57:56.538Z,23.10
2018-07-26T20:00:25.346Z,23.00
2018-07-26T20:02:54.020Z,22.90
2018-07-26T20:05:22.731Z,22.90
2018-07-26T20:07:51.615Z,22.80
2018-07-26T20:10:20.413Z,22.80
2018-07-26T20:12:49.167Z,22.90
2018-07-26T20:15:17.900Z,22.80
2018-07-26T20:17:46.674Z,22.90
2018-07-26T20:20:15.470Z,22.90
2018-07-26T20:22:44.146Z,22.90
2018-07-26T20:25:13.923Z,22.90
2018-07-26T20:27:43.664Z,23.00
2018-07-26T20:30:12.438Z,23.20
2018-07-26T20:32:42.204Z,23.10
2018-07-26T20:35:11.009Z,23.10
2018-07-26T20:37:39.833Z,22.90
2018-07-26T20:40:09.881Z,22.80
2018-07-26T20:42:38.645Z,22.80
2018-07-26T20:45:09.118Z,22.80
2018-07-26T20:47:37.984Z,22.60
2018-07-26T20:50:07.904Z,22.50
2018-07-26T20:52:38.383Z,22.30
2018-07-26T20:55:07.115Z,22.20
2018-07-26T20:57:35.879Z,22.10
2018-07-26T21:00:09.035Z,22.10
2018-07-26T21:02:37.791Z,22.10
2018-07-26T21:05:06.452Z,21.90
2018-07-26T21:07:37.274Z,21.80
2018-07-26T21:10:06.948Z,21.60
2018-07-26T21:12:35.693Z,21.60
2018-07-26T21:15:05.135Z,21.60
2018-07-26T21:17:33.959Z,21.50
2018-07-26T21:20:02.712Z,21.60
2018-07-26T21:22:31.445Z,21.50
2018-07-26T21:25:00.123Z,21.30
2018-07-26T21:27:28.849Z,21.30
2018-07-26T21:29:57.614Z,21.30
2018-07-26T21:32:26.875Z,21.30
2018-07-26T21:34:55.571Z,21.40
2018-07-26T21:37:24.321Z,21.20
2018-07-26T21:39:53.055Z,21.10
2018-07-26T21:42:21.794Z,21.00
2018-07-26T21:44:52.198Z,20.90
2018-07-26T21:47:20.968Z,21.00
2018-07-26T21:49:49.648Z,21.00
2018-07-26T21:52:18.413Z,20.90
2018-07-26T21:54:47.125Z,20.80
2018-07-26T21:57:15.836Z,20.70
2018-07-26T21:59:44.526Z,20.60
2018-07-26T22:02:14.934Z,20.80
2018-07-26T22:04:45.784Z,20.80
2018-07-26T22:07:14.478Z,20.70
2018-07-26T22:09:43.372Z,20.60
2018-07-26T22:12:12.083Z,20.60
2018-07-26T22:14:40.828Z,20.50
2018-07-26T22:17:09.675Z,20.40
2018-07-26T22:19:38.403Z,20.40
2018-07-26T22:22:07.500Z,20.30
2018-07-26T22:24:36.844Z,20.30
2018-07-26T22:27:07.952Z,20.20
2018-07-26T22:29:37.789Z,20.20
2018-07-26T22:32:07.569Z,20.20
2018-07-26T22:34:36.403Z,20.30
2018-07-26T22:37:06.352Z,20.30
2018-07-26T22:39:36.060Z,20.30
2018-07-26T22:42:04.821Z,20.30
2018-07-26T22:44:33.500Z,20.30
2018-07-26T22:47:02.178Z,20.40
2018-07-26T22:49:30.859Z,20.60
2018-07-26T22:51:59.781Z,20.60
2018-07-26T22:54:28.533Z,20.60
2018-07-26T22:56:57.307Z,20.60
2018-07-26T22:59:26.023Z,20.50
2018-07-26T23:01:54.771Z,20.30
2018-07-26T23:04:23.434Z,20.30
2018-07-26T23:06:53.412Z,20.30
2018-07-26T23:09:22.100Z,20.30
2018-07-26T23:11:50.912Z,20.30
2018-07-26T23:14:19.635Z,20.20
2018-07-26T23:16:48.420Z,20.10
2018-07-26T23:19:17.157Z,20.00
2018-07-26T23:21:45.911Z,19.90
2018-07-26T23:24:14.574Z,19.90
2018-07-26T23:26:43.326Z,19.80
2018-07-26T23:29:13.528Z,19.80
2018-07-26T23:31:42.182Z,19.80
2018-07-26T23:34:10.967Z,19.80
2018-07-26T23:36:39.773Z,19.80
2018-07-26T23:39:10.377Z,19.70
2018-07-26T23:41:39.297Z,19.70
2018-07-26T23:44:08.465Z,19.60
2018-07-26T23:46:37.437Z,19.60
2018-07-26T23:49:06.072Z,19.50
2018-07-26T23:51:34.794Z,19.60
2018-07-26T23:54:03.498Z,19.50
2018-07-26T23:56:35.276Z,19.50
2018-07-26T23:59:04.015Z,19.40
